This is the latest recevied weather packets stored in our database for station/object Huerbel. If no packets are shown the sender has not sent any weather packets the latest 10 day(s).
| Time | Temp. | Humidity | Pressure | Rain* | Wind** | Luminosity | Snow |
|---|---|---|---|---|---|---|---|
| 1777829530 | 21.67° C | 36% | 1012.5 hPa | 0 mm | - | - | - |
| 1777827731 | 21.67° C | 36% | 1012.2 hPa | 0 mm | - | - | - |
| 1777825930 | 23.33° C | 33% | 1012.2 hPa | 0 mm | - | - | - |
| 1777824131 | 23.33° C | 35% | 1012.1 hPa | 0 mm | - | - | - |
| 1777822330 | 24.44° C | 30% | 1012.3 hPa | 0 mm | - | - | - |
| 1777820530 | 24.44° C | 31% | 1012.4 hPa | 0 mm | - | - | - |
| 1777818730 | 23.33° C | 33% | 1012.4 hPa | 0 mm | - | - | - |
| 1777816930 | 23.89° C | 38% | 1012.9 hPa | 0 mm | - | - | - |
| 1777815131 | 22.78° C | 40% | 1013.2 hPa | 0 mm | - | - | - |
| 1777813330 | 23.33° C | 34% | 1013.5 hPa | 0 mm | - | - | - |
| 1777811536 | 23.33° C | 35% | 1013.8 hPa | 0 mm | - | - | - |
| 1777809730 | 22.78° C | 38% | 1013.9 hPa | 0 mm | - | - | - |
| 1777807932 | 23.89° C | 31% | 1014.2 hPa | 0 mm | - | - | - |
| 1777806130 | 23.33° C | 35% | 1014.4 hPa | 0 mm | - | - | - |
| 1777804332 | 22.22° C | 38% | 1014.7 hPa | 0 mm | - | - | - |
| 1777802532 | 21.67° C | 36% | 1014.9 hPa | 0 mm | - | - | - |
| 1777800731 | 21.11° C | 41% | 1015.2 hPa | 0 mm | - | - | - |
| 1777798930 | 20.56° C | 38% | 1015.7 hPa | 0 mm | - | - | - |
| 1777797132 | 19.44° C | 48% | 1015.9 hPa | 0 mm | - | - | - |
| 1777795332 | 17.22° C | 59% | 1015.8 hPa | 0 mm | - | - | - |
| 1777793531 | 16.67° C | 63% | 1015.8 hPa | 0 mm | - | - | - |
| 1777791731 | 14.44° C | 67% | 1016 hPa | 0 mm | - | - | - |
| 1777789931 | 10° C | 86% | 1016.1 hPa | 0 mm | - | - | - |
| 1777788131 | 8.33° C | 77% | 1016.1 hPa | 0 mm | - | - | - |
| 1777786331 | 8.33° C | 77% | 1016.1 hPa | 0 mm | - | - | - |
* Rain since midnight (hover to see other rain measurements)
** Current wind speed in m/s (hover to see current wind gust speed)